createdAt,value
2018-02-15T00:00:39.077Z,8.33
2018-02-15T00:03:07.484Z,14.37
2018-02-15T00:05:35.904Z,11.87
2018-02-15T00:08:04.739Z,11.83
2018-02-15T00:10:33.154Z,13.87
2018-02-15T00:13:01.583Z,21.43
2018-02-15T00:15:29.996Z,17.30
2018-02-15T00:17:59.920Z,12.03
2018-02-15T00:20:29.042Z,13.03
2018-02-15T00:22:58.764Z,10.13
2018-02-15T00:25:28.533Z,10.83
2018-02-15T00:27:57.621Z,10.43
2018-02-15T00:30:26.039Z,9.10
2018-02-15T00:32:55.217Z,13.53
2018-02-15T00:35:23.632Z,10.43
2018-02-15T00:37:52.040Z,8.27
2018-02-15T00:40:20.446Z,13.13
2018-02-15T00:42:48.861Z,10.93
2018-02-15T00:45:17.266Z,9.97
2018-02-15T00:47:45.673Z,10.90
2018-02-15T00:50:14.079Z,10.57
2018-02-15T00:52:43.241Z,13.67
2018-02-15T00:55:11.656Z,17.57
2018-02-15T00:57:40.824Z,15.03
2018-02-15T01:00:09.269Z,15.07
2018-02-15T01:02:37.684Z,14.17
2018-02-15T01:05:06.097Z,14.33
2018-02-15T01:07:34.526Z,18.13
2018-02-15T01:10:02.928Z,12.17
2018-02-15T01:12:32.111Z,16.23
2018-02-15T01:15:00.521Z,15.30
2018-02-15T01:17:28.939Z,11.67
2018-02-15T01:19:58.247Z,13.50
2018-02-15T01:22:26.689Z,11.40
2018-02-15T01:24:55.115Z,11.50
2018-02-15T01:27:23.536Z,10.67
2018-02-15T01:29:51.960Z,13.70
2018-02-15T01:32:20.360Z,13.57
2018-02-15T01:34:48.770Z,14.20
2018-02-15T01:37:17.445Z,10.43
2018-02-15T01:39:46.614Z,17.03
2018-02-15T01:42:15.047Z,11.57
2018-02-15T01:44:43.448Z,6.97
2018-02-15T01:47:11.859Z,12.40
2018-02-15T01:49:52.137Z,11.33
2018-02-15T01:52:20.563Z,11.73
2018-02-15T01:54:48.955Z,9.20
2018-02-15T01:57:17.363Z,9.03
2018-02-15T01:59:46.551Z,7.63
2018-02-15T02:02:15.727Z,9.13
2018-02-15T02:04:44.165Z,11.27
2018-02-15T02:07:12.564Z,9.93
2018-02-15T02:09:40.966Z,8.90
2018-02-15T02:12:09.384Z,11.07
2018-02-15T02:14:37.772Z,4.90
2018-02-15T02:17:06.164Z,8.33
2018-02-15T02:19:34.567Z,10.27
2018-02-15T02:22:02.996Z,5.87
2018-02-15T02:24:31.391Z,6.27
2018-02-15T02:26:59.787Z,6.43
2018-02-15T02:29:27.889Z,5.50
2018-02-15T02:31:57.123Z,8.20
2018-02-15T02:34:25.524Z,7.33
2018-02-15T02:36:53.911Z,6.47
2018-02-15T02:39:22.307Z,8.60
2018-02-15T02:41:50.717Z,7.03
2018-02-15T02:44:19.132Z,4.57
2018-02-15T02:46:47.533Z,5.43
2018-02-15T02:49:15.952Z,6.30
2018-02-15T02:51:44.390Z,6.53
2018-02-15T02:54:12.784Z,7.47
2018-02-15T02:56:41.970Z,5.83
2018-02-15T02:59:10.367Z,6.30
2018-02-15T03:01:39.575Z,9.57
2018-02-15T03:04:07.989Z,7.67
2018-02-15T03:06:36.430Z,6.33
2018-02-15T03:09:04.206Z,6.83
2018-02-15T03:11:32.597Z,5.37
2018-02-15T03:14:01.027Z,8.30
2018-02-15T03:16:30.216Z,7.33
2018-02-15T03:18:58.615Z,7.07
2018-02-15T03:21:27.770Z,7.40
2018-02-15T03:23:56.218Z,4.57
2018-02-15T03:26:24.626Z,7.67
2018-02-15T03:28:53.108Z,6.53
2018-02-15T03:31:21.517Z,6.67
2018-02-15T03:33:50.734Z,5.53
2018-02-15T03:36:19.152Z,8.80
2018-02-15T03:38:47.556Z,8.40
2018-02-15T03:41:15.957Z,10.50
2018-02-15T03:43:44.377Z,8.10
2018-02-15T03:46:12.772Z,8.07
2018-02-15T03:48:41.180Z,9.20
2018-02-15T03:51:10.347Z,7.47
2018-02-15T03:53:38.817Z,8.30
2018-02-15T03:56:07.223Z,6.37
2018-02-15T03:58:35.616Z,6.90
2018-02-15T04:01:04.813Z,7.10
2018-02-15T04:03:33.994Z,6.73
2018-02-15T04:06:03.166Z,9.23
2018-02-15T04:08:31.589Z,9.10
2018-02-15T04:10:59.998Z,8.40
2018-02-15T04:13:28.420Z,6.33
2018-02-15T04:15:56.837Z,8.53
2018-02-15T04:18:25.264Z,9.50
2018-02-15T04:20:53.691Z,6.97
2018-02-15T04:23:22.088Z,8.20
2018-02-15T04:25:50.491Z,7.27
2018-02-15T04:28:18.905Z,7.23
2018-02-15T04:30:48.078Z,7.70
2018-02-15T04:33:16.497Z,7.80
2018-02-15T04:35:44.908Z,7.87
2018-02-15T04:38:13.309Z,9.23
2018-02-15T04:40:41.703Z,5.87
2018-02-15T04:43:11.173Z,7.20
2018-02-15T04:45:39.839Z,6.47
2018-02-15T04:48:08.252Z,6.73
2018-02-15T04:50:36.639Z,7.50
2018-02-15T04:53:05.046Z,6.30
2018-02-15T04:55:33.449Z,6.23
2018-02-15T04:58:01.912Z,5.43
2018-02-15T05:00:30.321Z,3.80
2018-02-15T05:02:58.726Z,5.27
2018-02-15T05:05:27.128Z,4.57
2018-02-15T05:07:56.298Z,3.60
2018-02-15T05:10:24.709Z,5.30
2018-02-15T05:12:53.134Z,2.87
2018-02-15T05:15:21.522Z,4.03
2018-02-15T05:17:49.928Z,5.33
2018-02-15T05:20:19.102Z,3.47
2018-02-15T05:22:47.511Z,3.43
2018-02-15T05:25:16.690Z,2.57
2018-02-15T05:27:45.118Z,4.63
2018-02-15T05:30:13.503Z,4.43
2018-02-15T05:32:43.028Z,3.23
2018-02-15T05:35:12.204Z,2.93
2018-02-15T05:37:41.197Z,7.03
2018-02-15T05:40:10.303Z,3.60
2018-02-15T05:42:38.926Z,4.73
2018-02-15T05:45:08.164Z,2.93
2018-02-15T05:47:36.572Z,5.77
2018-02-15T05:50:04.664Z,4.97
2018-02-15T05:52:33.858Z,3.67
2018-02-15T05:55:03.035Z,4.50
2018-02-15T05:57:31.470Z,5.10
2018-02-15T05:59:59.905Z,3.03
2018-02-15T06:02:28.311Z,5.80
2018-02-15T06:04:56.777Z,3.80
2018-02-15T06:07:25.982Z,3.63
2018-02-15T06:09:55.198Z,4.13
2018-02-15T06:12:23.637Z,4.17
2018-02-15T06:14:52.068Z,4.83
2018-02-15T06:17:20.508Z,2.30
2018-02-15T06:19:49.742Z,3.00
2018-02-15T06:22:18.179Z,4.37
2018-02-15T06:24:47.381Z,3.00
2018-02-15T06:27:16.574Z,2.23
2018-02-15T06:29:45.783Z,1.37
2018-02-15T06:32:14.252Z,3.10
2018-02-15T06:34:43.454Z,5.70
2018-02-15T06:37:12.653Z,2.20
2018-02-15T06:39:41.869Z,3.17
2018-02-15T06:42:11.153Z,3.40
2018-02-15T06:44:40.388Z,2.93
2018-02-15T06:47:08.916Z,2.87
2018-02-15T06:49:38.101Z,2.40
2018-02-15T06:52:06.535Z,2.90
2018-02-15T06:54:34.980Z,4.53
2018-02-15T06:57:03.420Z,6.03
2018-02-15T06:59:31.856Z,5.80
2018-02-15T07:02:00.323Z,4.53
2018-02-15T07:04:28.757Z,6.77
2018-02-15T07:06:57.206Z,3.60
2018-02-15T07:09:25.655Z,6.67
2018-02-15T07:11:54.081Z,7.00
2018-02-15T07:14:22.559Z,5.50
2018-02-15T07:16:50.994Z,6.40
2018-02-15T07:19:19.425Z,6.83
2018-02-15T07:21:47.878Z,6.50
2018-02-15T07:24:16.310Z,7.07
2018-02-15T07:26:45.513Z,6.23
2018-02-15T07:29:14.723Z,7.23
2018-02-15T07:31:43.194Z,7.80
2018-02-15T07:34:12.116Z,6.83
2018-02-15T07:36:40.351Z,6.53
2018-02-15T07:39:10.484Z,6.63
2018-02-15T07:41:38.986Z,6.67
2018-02-15T07:44:07.431Z,7.20
2018-02-15T07:46:36.638Z,7.10
2018-02-15T07:49:04.884Z,7.43
2018-02-15T07:51:33.150Z,6.53
2018-02-15T07:54:01.396Z,6.73
2018-02-15T07:56:29.645Z,6.50
2018-02-15T07:58:57.923Z,6.87
2018-02-15T08:01:26.369Z,6.03
2018-02-15T08:03:55.566Z,5.37
2018-02-15T08:06:24.791Z,4.17
2018-02-15T08:08:53.231Z,4.20
2018-02-15T08:11:21.716Z,5.03
2018-02-15T08:13:50.314Z,4.70
2018-02-15T08:16:19.499Z,3.13
2018-02-15T08:18:48.705Z,4.00
2018-02-15T08:21:17.900Z,2.87
2018-02-15T08:23:47.107Z,3.27
2018-02-15T08:26:15.579Z,4.67
2018-02-15T08:28:44.811Z,4.57
2018-02-15T08:31:13.267Z,3.80
2018-02-15T08:33:42.705Z,4.00
2018-02-15T08:36:11.534Z,5.07
2018-02-15T08:38:40.780Z,6.10
2018-02-15T08:41:09.867Z,4.43
2018-02-15T08:43:38.300Z,6.93
2018-02-15T08:46:07.504Z,7.77
2018-02-15T08:48:36.748Z,7.13
2018-02-15T08:51:05.208Z,6.47
2018-02-15T08:53:33.645Z,5.83
2018-02-15T08:56:02.090Z,5.80
2018-02-15T08:58:30.543Z,5.47
2018-02-15T09:00:58.973Z,5.93
2018-02-15T09:03:27.428Z,6.10
2018-02-15T09:05:55.880Z,5.73
2018-02-15T09:08:24.304Z,6.30
2018-02-15T09:10:52.744Z,5.57
2018-02-15T09:13:21.178Z,6.40
2018-02-15T09:15:49.632Z,6.40
2018-02-15T09:18:18.054Z,5.67
2018-02-15T09:20:46.480Z,5.50
2018-02-15T09:23:14.943Z,5.40
2018-02-15T09:25:43.368Z,5.87
2018-02-15T09:28:12.750Z,6.07
2018-02-15T09:30:41.776Z,5.40
2018-02-15T09:33:11.794Z,6.37
2018-02-15T09:35:41.794Z,7.23
2018-02-15T09:38:10.229Z,8.20
2018-02-15T09:40:38.664Z,8.20
2018-02-15T09:43:07.855Z,8.17
2018-02-15T09:45:37.062Z,8.50
2018-02-15T09:48:05.496Z,8.40
2018-02-15T09:50:33.953Z,8.13
2018-02-15T09:53:02.394Z,7.83
2018-02-15T09:55:31.581Z,7.27
2018-02-15T09:58:00.800Z,6.87
2018-02-15T10:00:29.247Z,5.27
2018-02-15T10:02:57.702Z,4.93
2018-02-15T10:05:26.134Z,5.80
2018-02-15T10:07:54.579Z,7.10
2018-02-15T10:10:23.020Z,6.60
2018-02-15T10:12:51.449Z,7.90
2018-02-15T10:15:20.674Z,7.57
2018-02-15T10:17:49.109Z,7.83
2018-02-15T10:20:17.557Z,7.77
2018-02-15T10:22:46.021Z,7.70
2018-02-15T10:25:14.661Z,7.70
2018-02-15T10:27:43.882Z,7.13
2018-02-15T10:30:12.330Z,7.17
2018-02-15T10:32:42.712Z,7.37
2018-02-15T10:35:11.320Z,7.03
2018-02-15T10:37:40.715Z,7.20
2018-02-15T10:40:09.156Z,6.90
2018-02-15T10:42:38.604Z,6.90
2018-02-15T10:45:07.070Z,7.57
2018-02-15T10:47:35.509Z,6.80
2018-02-15T10:50:04.699Z,6.50
2018-02-15T10:52:34.817Z,5.70
2018-02-15T10:55:04.016Z,6.00
2018-02-15T10:57:33.055Z,6.10
2018-02-15T11:00:01.489Z,6.23
2018-02-15T11:02:29.920Z,6.83
2018-02-15T11:05:03.899Z,7.20
2018-02-15T11:07:32.338Z,5.07
2018-02-15T11:10:01.352Z,4.00
2018-02-15T11:12:29.804Z,5.53
2018-02-15T11:14:59.211Z,6.17
2018-02-15T11:17:28.417Z,6.13
2018-02-15T11:19:57.659Z,5.40
2018-02-15T11:22:26.085Z,8.00
2018-02-15T11:24:55.282Z,7.43
2018-02-15T11:27:24.498Z,8.50
2018-02-15T11:29:53.684Z,7.87
2018-02-15T11:32:22.889Z,6.30
2018-02-15T11:34:51.326Z,7.43
2018-02-15T11:37:19.780Z,7.67
2018-02-15T11:39:48.227Z,8.03
2018-02-15T11:42:17.421Z,8.63
2018-02-15T11:44:45.868Z,9.57
2018-02-15T11:47:14.325Z,8.10
2018-02-15T11:49:42.769Z,8.53
2018-02-15T11:52:11.652Z,10.47
2018-02-15T11:54:40.860Z,9.07
2018-02-15T11:57:09.683Z,5.90
2018-02-15T11:59:38.149Z,7.73
2018-02-15T12:02:06.585Z,8.77
2018-02-15T12:04:35.776Z,4.17
2018-02-15T12:07:05.003Z,10.23
2018-02-15T12:09:33.461Z,7.10
2018-02-15T12:12:02.709Z,6.93
2018-02-15T12:14:31.146Z,4.40
2018-02-15T12:17:00.354Z,7.10
2018-02-15T12:19:28.797Z,6.53
2018-02-15T12:21:57.234Z,7.50
2018-02-15T12:24:25.443Z,9.83
2018-02-15T12:26:53.898Z,11.07
2018-02-15T12:29:22.329Z,9.40
2018-02-15T12:31:51.556Z,9.50
2018-02-15T12:34:20.005Z,10.27
2018-02-15T12:36:49.201Z,7.33
2018-02-15T12:39:18.437Z,12.33
2018-02-15T12:41:46.863Z,10.43
2018-02-15T12:44:15.291Z,11.00
2018-02-15T12:46:43.728Z,10.27
2018-02-15T12:49:12.949Z,11.43
2018-02-15T12:51:41.418Z,11.13
2018-02-15T12:54:11.310Z,9.00
2018-02-15T12:56:40.218Z,11.40
2018-02-15T12:59:08.673Z,10.17
2018-02-15T13:01:37.117Z,11.53
2018-02-15T13:04:05.572Z,12.77
2018-02-15T13:06:34.014Z,11.57
2018-02-15T13:09:02.460Z,12.23
2018-02-15T13:11:30.906Z,13.33
2018-02-15T13:13:59.377Z,13.77
2018-02-15T13:16:39.412Z,13.27
2018-02-15T13:19:19.864Z,13.27
2018-02-15T13:21:48.309Z,12.87
2018-02-15T13:24:16.750Z,12.70
2018-02-15T13:26:45.222Z,14.23
2018-02-15T13:29:14.430Z,13.80
2018-02-15T13:31:42.945Z,14.47
2018-02-15T13:34:11.750Z,13.77
2018-02-15T13:36:40.676Z,14.47
2018-02-15T13:39:10.073Z,14.87
2018-02-15T13:41:39.416Z,14.97
2018-02-15T13:44:07.866Z,13.63
2018-02-15T13:46:36.302Z,14.13
2018-02-15T13:49:04.740Z,13.57
2018-02-15T13:51:33.197Z,14.93
2018-02-15T13:54:02.402Z,15.47
2018-02-15T13:56:30.836Z,14.40
2018-02-15T13:58:59.297Z,13.73
2018-02-15T14:01:27.740Z,13.13
2018-02-15T14:03:56.173Z,14.63
2018-02-15T14:06:24.632Z,13.70
2018-02-15T14:08:53.082Z,13.73
2018-02-15T14:11:21.522Z,12.17
2018-02-15T14:13:49.788Z,14.57
2018-02-15T14:16:18.212Z,13.10
2018-02-15T14:18:46.667Z,13.10
2018-02-15T14:21:15.870Z,14.30
2018-02-15T14:23:45.071Z,14.40
2018-02-15T14:26:14.276Z,14.93
2018-02-15T14:28:42.715Z,14.07
2018-02-15T14:31:11.983Z,12.07
2018-02-15T14:33:40.417Z,13.13
2018-02-15T14:36:10.171Z,13.53
2018-02-15T14:38:38.681Z,13.13
2018-02-15T14:41:07.200Z,12.40
2018-02-15T14:43:35.714Z,13.20
2018-02-15T14:46:04.235Z,13.27
2018-02-15T14:48:33.531Z,12.93
2018-02-15T14:51:02.941Z,12.93
2018-02-15T14:53:31.468Z,12.80
2018-02-15T14:56:00.653Z,12.73
2018-02-15T14:58:29.198Z,11.50
2018-02-15T15:03:33.309Z,12.70
2018-02-15T15:06:02.601Z,11.97
2018-02-15T15:08:31.151Z,12.10
2018-02-15T15:11:01.063Z,12.40
2018-02-15T15:13:29.849Z,12.17
2018-02-15T15:15:58.414Z,12.10
2018-02-15T15:18:27.827Z,11.73
2018-02-15T15:20:57.186Z,12.57
2018-02-15T15:23:27.509Z,11.67
2018-02-15T15:25:56.801Z,11.57
2018-02-15T15:28:25.168Z,11.30
2018-02-15T15:30:53.676Z,11.43
2018-02-15T15:33:22.188Z,11.67
2018-02-15T15:35:50.698Z,10.33
2018-02-15T15:38:19.253Z,10.47
2018-02-15T15:40:47.796Z,11.10
2018-02-15T15:43:16.476Z,12.13
2018-02-15T15:45:45.748Z,11.30
2018-02-15T15:48:15.045Z,11.60
2018-02-15T15:50:44.363Z,11.43
2018-02-15T15:53:13.317Z,10.80
2018-02-15T15:55:41.855Z,10.03
2018-02-15T15:58:10.390Z,11.30
2018-02-15T16:00:39.702Z,11.03
2018-02-15T16:03:08.226Z,11.27
2018-02-15T16:05:37.542Z,9.97
2018-02-15T16:08:06.054Z,10.97
2018-02-15T16:10:34.586Z,10.33
2018-02-15T16:13:03.745Z,11.07
2018-02-15T16:15:32.694Z,10.43
2018-02-15T16:18:02.184Z,10.47
2018-02-15T16:20:30.680Z,10.77
2018-02-15T16:22:59.217Z,10.57
2018-02-15T16:25:27.829Z,12.17
2018-02-15T16:27:56.395Z,13.10
2018-02-15T16:30:26.148Z,10.83
2018-02-15T16:32:54.356Z,12.03
2018-02-15T16:35:22.968Z,11.57
2018-02-15T16:37:51.490Z,9.70
2018-02-15T16:40:20.044Z,9.30
2018-02-15T16:42:48.485Z,10.63
2018-02-15T16:45:17.690Z,11.23
2018-02-15T16:47:46.132Z,11.03
2018-02-15T16:50:14.551Z,9.33
2018-02-15T16:52:44.003Z,9.07
2018-02-15T16:55:12.431Z,10.47
2018-02-15T16:57:40.874Z,10.60
2018-02-15T17:00:09.319Z,9.60
2018-02-15T17:02:38.733Z,9.33
2018-02-15T17:05:07.188Z,34.90
2018-02-15T17:07:35.630Z,25.23
2018-02-15T17:10:04.515Z,17.57
2018-02-15T17:12:34.699Z,14.23
2018-02-15T17:15:03.535Z,13.53
2018-02-15T17:17:32.749Z,13.37
2018-02-15T17:20:01.439Z,12.40
2018-02-15T17:22:29.875Z,12.70
2018-02-15T17:24:58.316Z,11.67
2018-02-15T17:27:26.750Z,10.77
2018-02-15T18:45:53.926Z,14.70
2018-02-15T18:48:22.359Z,12.53
2018-02-15T18:50:50.789Z,14.03
2018-02-15T18:53:19.271Z,12.13
2018-02-15T18:55:47.705Z,14.37
2018-02-15T18:58:16.195Z,11.30
2018-02-15T19:00:44.672Z,10.50
2018-02-15T19:03:13.169Z,12.60
2018-02-15T19:05:41.748Z,12.30
2018-02-15T19:08:10.179Z,13.53
2018-02-15T19:10:38.621Z,15.07
2018-02-15T19:13:07.050Z,15.37
2018-02-15T19:15:35.505Z,14.50
2018-02-15T19:18:04.706Z,11.30
2018-02-15T19:20:34.894Z,11.93
2018-02-15T19:23:03.337Z,14.93
2018-02-15T19:25:32.232Z,13.07
2018-02-15T19:28:00.741Z,14.00
2018-02-15T19:30:29.295Z,12.37
2018-02-15T19:32:57.802Z,10.80
2018-02-15T19:35:26.244Z,13.53
2018-02-15T19:37:54.682Z,13.87
2018-02-15T19:40:23.906Z,14.40
2018-02-15T19:42:52.323Z,10.93
2018-02-15T19:45:20.763Z,11.03
2018-02-15T19:47:49.186Z,10.70
2018-02-15T19:50:17.638Z,15.77
2018-02-15T19:52:46.085Z,11.60
2018-02-15T19:55:14.517Z,16.67
2018-02-15T19:57:42.953Z,17.17
2018-02-15T20:00:11.054Z,18.67
2018-02-15T20:02:39.499Z,14.00
2018-02-15T20:05:07.946Z,13.37
2018-02-15T20:07:37.411Z,11.47
2018-02-15T20:10:05.843Z,10.80
2018-02-15T20:12:36.076Z,11.10
2018-02-15T20:15:04.535Z,12.10
2018-02-15T20:17:33.716Z,10.73
2018-02-15T20:20:07.675Z,12.00
2018-02-15T20:22:36.606Z,15.33
2018-02-15T20:25:05.039Z,46.37
2018-02-15T20:27:40.028Z,14.07
2018-02-15T20:30:08.470Z,67.93
2018-02-15T20:32:36.935Z,31.53
2018-02-15T20:35:05.384Z,82.47
2018-02-15T20:37:40.026Z,36.17
2018-02-15T20:40:14.094Z,36.13
2018-02-15T20:42:43.409Z,27.90
2018-02-15T20:45:12.614Z,19.20
2018-02-15T20:47:41.813Z,25.00
2018-02-15T20:50:15.889Z,14.97
2018-02-15T20:55:46.952Z,17.10
2018-02-15T20:58:15.406Z,18.70
2018-02-15T21:00:43.852Z,26.50
2018-02-15T21:03:12.324Z,16.97
2018-02-15T21:05:40.744Z,16.53
2018-02-15T21:08:09.174Z,17.47
2018-02-15T21:10:38.378Z,16.87
2018-02-15T21:13:06.468Z,11.67
2018-02-15T21:15:35.896Z,11.47
2018-02-15T21:18:03.980Z,12.20
2018-02-15T21:20:32.554Z,13.30
2018-02-15T21:23:00.980Z,10.87
2018-02-15T21:25:29.613Z,12.97
2018-02-15T21:27:58.060Z,11.30
2018-02-15T21:30:26.479Z,10.90
2018-02-15T21:32:54.915Z,11.97
2018-02-15T21:35:23.352Z,12.13
2018-02-15T21:37:52.567Z,10.20
2018-02-15T21:40:21.000Z,12.43
2018-02-15T21:42:49.455Z,10.53
2018-02-15T21:45:17.886Z,10.50
2018-02-15T21:47:47.085Z,11.97
2018-02-15T21:50:16.283Z,14.50
2018-02-15T21:52:45.468Z,11.73
2018-02-15T21:55:13.905Z,19.37
2018-02-15T21:57:42.351Z,20.47
2018-02-15T22:00:10.798Z,20.17
2018-02-15T22:02:39.267Z,21.33
2018-02-15T22:05:07.707Z,14.80
2018-02-15T22:07:36.136Z,14.43
2018-02-15T22:10:05.342Z,13.77
2018-02-15T22:12:35.537Z,12.33
2018-02-15T22:15:04.104Z,12.87
2018-02-15T22:17:32.564Z,12.20
2018-02-15T22:20:00.969Z,9.70
2018-02-15T22:22:29.380Z,12.67
2018-02-15T22:24:58.531Z,10.07
2018-02-15T22:27:26.952Z,9.73
2018-02-15T22:29:56.116Z,9.00
2018-02-15T22:32:24.512Z,8.33
2018-02-15T22:34:52.922Z,7.50
2018-02-15T22:37:21.374Z,8.27
2018-02-15T22:39:49.767Z,8.50
2018-02-15T22:42:18.746Z,7.07
2018-02-15T22:44:47.938Z,6.97
2018-02-15T22:47:16.334Z,7.50
2018-02-15T22:49:45.480Z,7.57
2018-02-15T22:52:13.889Z,6.30
2018-02-15T22:54:42.300Z,7.07
2018-02-15T22:57:10.931Z,8.93
2018-02-15T22:59:39.334Z,7.17
2018-02-15T23:02:08.555Z,8.77
2018-02-15T23:04:36.961Z,13.83
2018-02-15T23:07:06.336Z,8.90
2018-02-15T23:09:35.791Z,9.33
2018-02-15T23:12:04.201Z,9.17
2018-02-15T23:14:34.100Z,8.07
2018-02-15T23:17:02.767Z,8.30
2018-02-15T23:19:31.177Z,7.37
2018-02-15T23:22:00.328Z,7.87
2018-02-15T23:24:29.502Z,5.93
2018-02-15T23:26:57.885Z,6.10
2018-02-15T23:29:26.258Z,6.03
2018-02-15T23:31:54.672Z,5.90
2018-02-15T23:34:23.046Z,6.40
2018-02-15T23:36:51.449Z,6.87
2018-02-15T23:39:20.584Z,5.90
2018-02-15T23:41:48.974Z,5.40
2018-02-15T23:44:17.365Z,5.07
2018-02-15T23:46:45.775Z,6.27
2018-02-15T23:49:14.927Z,5.73
2018-02-15T23:51:43.337Z,7.87
2018-02-15T23:54:12.527Z,6.87
2018-02-15T23:56:41.014Z,6.80
2018-02-15T23:59:10.186Z,6.60
